createdAt,value
2023-04-09T00:01:13.651Z,26.00
2023-04-09T00:03:47.920Z,26.20
2023-04-09T00:06:20.884Z,25.20
2023-04-09T00:08:53.824Z,26.33
2023-04-09T00:11:26.908Z,24.43
2023-04-09T00:13:59.619Z,26.60
2023-04-09T00:16:35.204Z,26.10
2023-04-09T00:19:09.615Z,25.40
2023-04-09T00:21:42.287Z,26.87
2023-04-09T00:24:15.039Z,25.63
2023-04-09T00:26:49.197Z,26.70
2023-04-09T00:29:22.482Z,27.13
2023-04-09T00:31:55.221Z,27.33
2023-04-09T00:34:30.496Z,26.33
2023-04-09T00:37:03.303Z,26.73
2023-04-09T00:39:36.188Z,28.50
2023-04-09T00:42:08.886Z,29.30
2023-04-09T00:44:41.707Z,27.93
2023-04-09T00:47:14.894Z,28.40
2023-04-09T00:49:49.309Z,27.60
2023-04-09T00:52:25.512Z,29.00
2023-04-09T00:54:59.262Z,29.50
2023-04-09T00:57:34.647Z,27.93
2023-04-09T01:00:08.509Z,27.83
2023-04-09T01:02:41.766Z,27.90
2023-04-09T01:05:17.265Z,29.27
2023-04-09T01:08:03.151Z,27.97
2023-04-09T01:10:39.912Z,29.07
2023-04-09T01:13:13.867Z,28.73
2023-04-09T01:15:48.232Z,29.17
2023-04-09T01:18:24.633Z,30.23
2023-04-09T01:21:00.585Z,29.10
2023-04-09T01:23:37.972Z,28.90
2023-04-09T01:26:19.272Z,29.77
2023-04-09T01:28:54.948Z,30.80
2023-04-09T01:31:31.865Z,27.80
2023-04-09T01:34:05.035Z,27.20
2023-04-09T01:36:38.903Z,28.43
2023-04-09T01:39:11.735Z,28.70
2023-04-09T01:41:44.543Z,29.03
2023-04-09T01:44:18.889Z,31.33
2023-04-09T01:46:57.767Z,28.83
2023-04-09T01:49:31.209Z,31.03
2023-04-09T01:52:04.174Z,29.47
2023-04-09T01:54:36.834Z,30.80
2023-04-09T01:57:09.821Z,29.47
2023-04-09T01:59:44.179Z,30.93
2023-04-09T02:02:19.171Z,29.07
2023-04-09T02:04:55.123Z,28.70
2023-04-09T02:07:35.304Z,29.83
2023-04-09T02:10:11.970Z,27.73
2023-04-09T02:12:49.438Z,29.73
2023-04-09T02:15:24.191Z,28.73
2023-04-09T02:17:56.902Z,29.63
2023-04-09T02:20:30.165Z,28.47
2023-04-09T02:23:02.876Z,29.17
2023-04-09T02:25:35.658Z,28.93
2023-04-09T02:28:08.324Z,28.90
2023-04-09T02:30:42.650Z,28.93
2023-04-09T02:33:15.380Z,27.90
2023-04-09T02:35:48.358Z,27.80
2023-04-09T02:38:21.136Z,28.53
2023-04-09T02:40:53.863Z,27.60
2023-04-09T02:43:26.585Z,28.13
2023-04-09T02:46:01.586Z,27.53
2023-04-09T02:48:36.604Z,24.87
2023-04-09T02:51:09.367Z,26.33
2023-04-09T02:53:42.255Z,26.03
2023-04-09T02:56:15.054Z,25.80
2023-04-09T02:58:53.290Z,25.90
2023-04-09T03:01:27.692Z,26.27
2023-04-09T03:04:02.497Z,24.60
2023-04-09T03:06:35.581Z,25.23
2023-04-09T03:09:08.377Z,25.10
2023-04-09T03:11:41.316Z,27.43
2023-04-09T03:14:14.131Z,29.50
2023-04-09T03:16:48.479Z,30.00
2023-04-09T03:19:21.232Z,28.57
2023-04-09T03:21:54.649Z,30.33
2023-04-09T03:24:28.704Z,31.10
2023-04-09T03:27:04.019Z,24.70
2023-04-09T03:29:40.336Z,31.30
2023-04-09T03:32:15.034Z,29.50
2023-04-09T03:34:48.733Z,29.67
2023-04-09T03:37:21.551Z,29.93
2023-04-09T03:39:54.404Z,30.03
2023-04-09T03:42:27.267Z,30.27
2023-04-09T03:45:02.173Z,26.83
2023-04-09T03:47:36.715Z,27.40
2023-04-09T03:50:09.789Z,28.10
2023-04-09T03:52:42.387Z,29.27
2023-04-09T03:55:15.411Z,28.00
2023-04-09T03:57:48.158Z,30.23
2023-04-09T04:00:21.010Z,29.07
2023-04-09T04:02:57.747Z,30.03
2023-04-09T04:05:31.499Z,30.37
2023-04-09T04:08:04.500Z,29.93
2023-04-09T04:10:37.261Z,30.23
2023-04-09T04:13:10.337Z,31.23
2023-04-09T04:15:43.590Z,30.73
2023-04-09T04:18:17.894Z,30.47
2023-04-09T04:20:50.713Z,31.90
2023-04-09T04:23:23.467Z,30.27
2023-04-09T04:25:58.048Z,30.53
2023-04-09T04:28:32.794Z,29.57
2023-04-09T04:31:08.448Z,30.03
2023-04-09T04:33:44.005Z,27.70
2023-04-09T04:36:16.866Z,28.20
2023-04-09T04:38:49.756Z,29.77
2023-04-09T04:41:22.547Z,29.97
2023-04-09T04:43:55.561Z,31.17
2023-04-09T04:46:28.275Z,25.57
2023-04-09T04:49:02.406Z,29.17
2023-04-09T04:51:35.133Z,28.90
2023-04-09T04:54:07.954Z,29.00
2023-04-09T04:56:40.733Z,29.20
2023-04-09T04:59:13.618Z,30.23
2023-04-09T05:01:49.293Z,29.60
2023-04-09T05:04:23.520Z,29.83
2023-04-09T05:06:56.242Z,28.27
2023-04-09T05:09:28.970Z,29.00
2023-04-09T05:12:01.722Z,30.23
2023-04-09T05:14:34.540Z,29.80
2023-04-09T05:17:09.598Z,29.63
2023-04-09T05:19:43.753Z,29.27
2023-04-09T05:22:18.387Z,29.87
2023-04-09T05:24:51.431Z,28.67
2023-04-09T05:27:25.952Z,29.57
2023-04-09T05:30:00.668Z,28.30
2023-04-09T05:32:33.654Z,27.73
2023-04-09T05:35:08.192Z,30.17
2023-04-09T05:37:41.528Z,28.63
2023-04-09T05:40:14.850Z,28.67
2023-04-09T05:42:47.583Z,27.27
2023-04-09T05:45:20.380Z,27.80
2023-04-09T05:47:53.256Z,27.00
2023-04-09T05:50:27.441Z,28.43
2023-04-09T05:53:00.192Z,27.20
2023-04-09T05:55:33.023Z,27.60
2023-04-09T05:58:05.933Z,27.37
2023-04-09T06:00:38.923Z,28.53
2023-04-09T06:03:11.826Z,28.47
2023-04-09T06:05:48.180Z,25.63
2023-04-09T06:08:21.039Z,26.50
2023-04-09T06:10:53.813Z,27.80
2023-04-09T06:13:26.661Z,29.10
2023-04-09T06:15:59.594Z,27.60
2023-04-09T06:18:33.808Z,25.20
2023-04-09T06:21:09.494Z,28.07
2023-04-09T06:23:42.261Z,26.70
2023-04-09T06:26:15.252Z,24.43
2023-04-09T06:28:48.031Z,24.73
2023-04-09T06:31:21.156Z,24.13
2023-04-09T06:33:54.293Z,24.03
2023-04-09T06:36:30.520Z,25.70
2023-04-09T06:39:03.361Z,24.40
2023-04-09T06:41:36.323Z,24.50
2023-04-09T06:44:09.000Z,23.93
2023-04-09T06:46:41.842Z,24.67
2023-04-09T06:49:14.606Z,24.67
2023-04-09T06:51:48.786Z,24.00
2023-04-09T06:54:21.676Z,24.07
2023-04-09T06:56:57.438Z,24.17
2023-04-09T06:59:30.198Z,25.53
2023-04-09T07:02:03.083Z,24.60
2023-04-09T07:04:36.931Z,24.80
2023-04-09T07:07:12.795Z,24.17
2023-04-09T07:09:47.762Z,23.27
2023-04-09T07:12:27.257Z,25.47
2023-04-09T07:15:00.233Z,23.90
2023-04-09T07:17:34.389Z,23.57
2023-04-09T07:20:07.633Z,26.30
2023-04-09T07:22:41.745Z,23.83
2023-04-09T07:25:14.658Z,22.53
2023-04-09T07:27:47.494Z,25.73
2023-04-09T07:30:23.573Z,26.03
2023-04-09T07:32:56.528Z,26.97
2023-04-09T07:35:29.341Z,25.63
2023-04-09T07:38:03.736Z,26.17
2023-04-09T07:40:36.753Z,26.23
2023-04-09T07:43:09.519Z,26.43
2023-04-09T07:45:42.608Z,27.27
2023-04-09T07:48:15.922Z,25.03
2023-04-09T07:50:48.998Z,26.63
2023-04-09T07:53:23.211Z,25.80
2023-04-09T07:55:56.500Z,26.20
2023-04-09T07:58:29.528Z,25.47
2023-04-09T08:01:02.576Z,28.13
2023-04-09T08:03:38.446Z,25.60
2023-04-09T08:06:11.521Z,26.33
2023-04-09T08:08:48.140Z,27.23
2023-04-09T08:11:25.183Z,26.37
2023-04-09T08:13:58.528Z,26.60
2023-04-09T08:16:31.378Z,23.97
2023-04-09T08:19:04.249Z,26.10
2023-04-09T08:21:40.139Z,25.77
2023-04-09T08:24:14.312Z,24.60
2023-04-09T08:26:47.089Z,25.63
2023-04-09T08:29:20.118Z,26.27
2023-04-09T08:31:53.168Z,25.50
2023-04-09T08:34:26.164Z,26.33
2023-04-09T08:36:59.147Z,24.37
2023-04-09T08:39:33.341Z,26.53
2023-04-09T08:42:07.788Z,26.60
2023-04-09T08:44:41.152Z,26.20
2023-04-09T08:47:14.258Z,25.67
2023-04-09T08:49:48.550Z,25.43
2023-04-09T08:52:30.932Z,23.93
2023-04-09T08:55:06.099Z,25.33
2023-04-09T08:57:41.743Z,24.37
2023-04-09T09:00:15.450Z,26.73
2023-04-09T09:03:03.643Z,24.33
2023-04-09T09:05:37.227Z,24.53
2023-04-09T09:08:12.738Z,25.17
2023-04-09T09:10:47.095Z,23.33
2023-04-09T09:13:21.323Z,24.87
2023-04-09T09:15:56.483Z,23.83
2023-04-09T09:18:38.749Z,25.10
2023-04-09T09:21:15.703Z,24.30
2023-04-09T09:23:54.965Z,24.53
2023-04-09T09:26:32.024Z,22.83
2023-04-09T09:29:05.881Z,22.53
2023-04-09T09:31:50.253Z,23.77
2023-04-09T09:34:24.629Z,25.67
2023-04-09T09:36:57.510Z,20.47
2023-04-09T09:39:43.570Z,23.93
2023-04-09T09:42:17.870Z,22.67
2023-04-09T09:44:51.468Z,22.93
2023-04-09T09:47:25.387Z,22.00
2023-04-09T09:49:58.237Z,22.37
2023-04-09T09:52:36.234Z,22.80
2023-04-09T09:55:09.411Z,23.13
2023-04-09T09:57:45.466Z,24.17
2023-04-09T10:00:19.461Z,21.93
2023-04-09T10:02:57.115Z,22.57
2023-04-09T10:05:30.603Z,22.27
2023-04-09T10:08:04.561Z,19.87
2023-04-09T10:10:38.643Z,20.60
2023-04-09T10:13:15.538Z,21.73
2023-04-09T10:15:48.595Z,21.73
2023-04-09T10:18:21.326Z,21.83
2023-04-09T10:20:57.995Z,22.33
2023-04-09T10:23:33.742Z,21.47
2023-04-09T10:26:06.653Z,21.07
2023-04-09T10:28:41.354Z,14.50
2023-04-09T10:31:15.069Z,19.60
2023-04-09T10:33:47.969Z,21.63
2023-04-09T10:36:27.469Z,21.57
2023-04-09T10:39:00.573Z,20.10
2023-04-09T10:41:35.205Z,20.93
2023-04-09T10:44:20.605Z,20.30
2023-04-09T10:46:54.598Z,20.30
2023-04-09T10:49:28.122Z,21.70
2023-04-09T10:52:02.895Z,20.53
2023-04-09T10:54:47.019Z,21.43
2023-04-09T10:57:26.263Z,20.87
2023-04-09T11:00:00.604Z,19.47
2023-04-09T11:02:55.014Z,20.63
2023-04-09T11:05:31.546Z,20.77
2023-04-09T11:08:05.768Z,19.03
2023-04-09T11:10:38.985Z,19.23
2023-04-09T11:13:12.596Z,20.90
2023-04-09T11:15:46.994Z,18.43
2023-04-09T11:18:23.369Z,18.87
2023-04-09T11:20:56.533Z,20.37
2023-04-09T11:23:29.703Z,20.73
2023-04-09T11:26:02.974Z,20.20
2023-04-09T11:28:35.890Z,20.03
2023-04-09T11:31:10.356Z,21.07
2023-04-09T11:33:47.969Z,19.03
2023-04-09T11:36:28.431Z,18.80
2023-04-09T11:39:04.095Z,20.30
2023-04-09T11:41:37.637Z,18.90
2023-04-09T11:44:10.445Z,19.47
2023-04-09T11:46:44.937Z,18.63
2023-04-09T11:49:18.513Z,20.20
2023-04-09T11:51:51.502Z,20.63
2023-04-09T11:54:24.371Z,19.47
2023-04-09T11:56:59.971Z,19.37
2023-04-09T11:59:32.845Z,19.50
2023-04-09T12:02:08.589Z,20.00
2023-04-09T12:04:50.004Z,18.03
2023-04-09T12:07:22.955Z,19.30
2023-04-09T12:09:57.825Z,18.77
2023-04-09T12:12:30.584Z,18.57
2023-04-09T12:15:11.176Z,18.50
2023-04-09T12:17:47.737Z,19.03
2023-04-09T12:20:31.214Z,18.30
2023-04-09T12:23:04.860Z,19.30
2023-04-09T12:25:38.837Z,17.73
2023-04-09T12:28:13.698Z,18.00
2023-04-09T12:30:46.869Z,15.57
2023-04-09T12:33:21.127Z,18.57
2023-04-09T12:35:56.040Z,17.33
2023-04-09T12:38:29.033Z,15.50
2023-04-09T12:41:02.161Z,16.40
2023-04-09T12:43:34.856Z,19.27
2023-04-09T12:46:08.209Z,19.23
2023-04-09T12:48:42.606Z,19.63
2023-04-09T12:51:15.512Z,18.63
2023-04-09T12:53:48.478Z,19.00
2023-04-09T12:56:21.208Z,19.93
2023-04-09T12:58:54.432Z,19.40
2023-04-09T13:01:27.447Z,19.80
2023-04-09T13:04:01.853Z,19.17
2023-04-09T13:06:34.687Z,19.27
2023-04-09T13:09:07.939Z,18.93
2023-04-09T13:11:40.768Z,18.70
2023-04-09T13:14:13.669Z,16.70
2023-04-09T13:16:46.615Z,18.30
2023-04-09T13:19:20.991Z,18.27
2023-04-09T13:21:53.811Z,19.10
2023-04-09T13:24:27.219Z,19.20
2023-04-09T13:27:00.040Z,18.83
2023-04-09T13:29:35.161Z,18.73
2023-04-09T13:32:08.175Z,19.07
2023-04-09T13:34:42.435Z,18.03
2023-04-09T13:37:17.858Z,19.10
2023-04-09T13:39:50.811Z,19.53
2023-04-09T13:42:23.592Z,18.80
2023-04-09T13:44:58.408Z,18.33
2023-04-09T13:47:31.245Z,17.30
2023-04-09T13:50:06.087Z,17.93
2023-04-09T13:52:38.841Z,18.47
2023-04-09T13:55:11.722Z,18.90
2023-04-09T13:57:45.421Z,18.83
2023-04-09T14:00:19.765Z,18.77
2023-04-09T14:02:52.654Z,18.50
2023-04-09T14:05:27.317Z,21.97
2023-04-09T14:08:00.065Z,23.13
2023-04-09T14:10:33.743Z,18.33
2023-04-09T14:13:07.378Z,19.17
2023-04-09T14:15:41.781Z,18.53
2023-04-09T14:18:14.763Z,17.50
2023-04-09T14:20:49.099Z,19.37
2023-04-09T14:23:21.888Z,16.57
2023-04-09T14:25:54.789Z,17.73
2023-04-09T14:28:28.493Z,18.07
2023-04-09T14:31:01.538Z,16.80
2023-04-09T14:33:34.667Z,18.03
2023-04-09T14:36:09.405Z,18.13
2023-04-09T14:38:42.180Z,18.60
2023-04-09T14:41:15.377Z,19.17
2023-04-09T14:43:48.273Z,19.10
2023-04-09T14:46:22.217Z,18.60
2023-04-09T14:48:55.153Z,17.77
2023-04-09T14:51:30.524Z,18.63
2023-04-09T14:54:06.505Z,18.30
2023-04-09T14:56:39.371Z,17.90
2023-04-09T14:59:12.151Z,18.33
2023-04-09T15:01:45.326Z,17.67
2023-04-09T15:04:18.442Z,18.33
2023-04-09T15:06:52.838Z,19.10
2023-04-09T15:09:25.768Z,17.90
2023-04-09T15:11:58.851Z,18.03
2023-04-09T15:14:31.870Z,18.90
2023-04-09T15:17:04.677Z,16.80
2023-04-09T15:19:37.464Z,16.73
2023-04-09T15:22:11.940Z,17.43
2023-04-09T15:24:44.993Z,17.13
2023-04-09T15:27:18.269Z,18.20
2023-04-09T15:29:51.695Z,17.57
2023-04-09T15:32:24.608Z,17.33
2023-04-09T15:34:57.746Z,15.93
2023-04-09T15:37:31.943Z,16.43
2023-04-09T15:40:05.138Z,15.27
2023-04-09T15:42:39.693Z,14.17
2023-04-09T15:45:12.920Z,15.23
2023-04-09T15:47:46.049Z,15.90
2023-04-09T15:50:19.027Z,15.60
2023-04-09T15:52:53.616Z,17.23
2023-04-09T15:55:27.137Z,14.63
2023-04-09T15:58:00.659Z,16.40
2023-04-09T16:00:33.467Z,16.03
2023-04-09T16:03:09.029Z,14.97
2023-04-09T16:05:43.568Z,14.53
2023-04-09T16:08:17.971Z,13.20
2023-04-09T16:10:50.957Z,13.77
2023-04-09T16:13:24.453Z,14.07
2023-04-09T16:15:57.653Z,13.83
2023-04-09T16:18:30.704Z,14.80
2023-04-09T16:21:05.790Z,15.00
2023-04-09T16:23:40.084Z,14.80
2023-04-09T16:26:12.938Z,14.43
2023-04-09T16:28:46.462Z,13.97
2023-04-09T16:31:19.476Z,13.43
2023-04-09T16:33:52.572Z,14.27
2023-04-09T16:36:30.533Z,15.20
2023-04-09T16:39:05.022Z,14.23
2023-04-09T16:41:37.931Z,15.27
2023-04-09T16:44:10.927Z,13.83
2023-04-09T16:46:44.104Z,14.80
2023-04-09T16:49:17.222Z,16.43
2023-04-09T16:51:51.776Z,15.30
2023-04-09T16:54:26.167Z,16.00
2023-04-09T16:56:59.201Z,16.07
2023-04-09T16:59:32.785Z,15.07
2023-04-09T17:02:05.710Z,16.17
2023-04-09T17:04:38.713Z,16.03
2023-04-09T17:07:14.213Z,16.50
2023-04-09T17:09:48.471Z,16.13
2023-04-09T17:12:21.612Z,15.10
2023-04-09T17:14:58.715Z,16.13
2023-04-09T17:17:33.315Z,14.97
2023-04-09T17:20:06.732Z,15.30
2023-04-09T17:22:39.936Z,15.77
2023-04-09T17:25:14.941Z,16.60
2023-04-09T17:27:47.804Z,17.37
2023-04-09T17:30:21.236Z,16.90
2023-04-09T17:32:54.141Z,17.87
2023-04-09T17:35:27.360Z,16.47
2023-04-09T17:38:00.304Z,17.03
2023-04-09T17:40:37.563Z,16.50
2023-04-09T17:43:10.334Z,15.97
2023-04-09T17:45:43.372Z,15.87
2023-04-09T17:48:16.685Z,17.10
2023-04-09T17:50:50.135Z,16.87
2023-04-09T17:53:23.227Z,17.23
2023-04-09T17:55:57.466Z,16.33
2023-04-09T17:58:30.473Z,18.20
2023-04-09T18:01:03.177Z,16.27
2023-04-09T18:03:36.540Z,17.57
2023-04-09T18:06:09.712Z,16.80
2023-04-09T18:08:43.394Z,18.03
2023-04-09T18:11:18.397Z,16.63
2023-04-09T18:13:51.630Z,18.10
2023-04-09T18:16:24.656Z,18.30
2023-04-09T18:18:57.762Z,18.07
2023-04-09T18:21:31.200Z,18.77
2023-04-09T18:24:04.438Z,17.90
2023-04-09T18:26:38.889Z,18.03
2023-04-09T18:29:11.876Z,18.13
2023-04-09T18:31:44.772Z,19.57
2023-04-09T18:34:17.651Z,20.07
2023-04-09T18:36:53.296Z,18.67
2023-04-09T18:39:27.586Z,20.77
2023-04-09T18:42:02.622Z,20.43
2023-04-09T18:44:37.396Z,19.93
2023-04-09T18:47:11.947Z,21.07
2023-04-09T18:49:45.062Z,21.80
2023-04-09T18:52:17.999Z,23.27
2023-04-09T18:54:51.107Z,22.23
2023-04-09T18:57:25.525Z,23.37
2023-04-09T19:00:00.406Z,25.23
2023-04-09T19:02:33.287Z,26.23
2023-04-09T19:05:07.616Z,26.43
2023-04-09T19:07:40.654Z,26.37
2023-04-09T19:10:13.900Z,26.57
2023-04-09T19:12:53.676Z,27.67
2023-04-09T19:15:28.455Z,27.13
2023-04-09T19:18:01.469Z,28.27
2023-04-09T19:20:34.421Z,28.97
2023-04-09T19:23:07.444Z,31.40
2023-04-09T19:25:40.358Z,31.73
2023-04-09T19:28:15.305Z,36.53
2023-04-09T19:30:50.346Z,33.33
2023-04-09T19:33:25.368Z,36.30
2023-04-09T19:35:59.082Z,36.17
2023-04-09T19:38:32.103Z,35.33
2023-04-09T19:41:05.110Z,33.43
2023-04-09T19:43:39.542Z,34.80
2023-04-09T19:46:13.140Z,34.60
2023-04-09T19:48:46.358Z,34.00
2023-04-09T19:51:20.021Z,34.30
2023-04-09T19:53:55.736Z,33.83
2023-04-09T19:56:28.533Z,33.73
2023-04-09T19:59:02.978Z,33.67
2023-04-09T20:01:36.094Z,35.53
2023-04-09T20:04:09.363Z,33.37
2023-04-09T20:06:43.678Z,33.23
2023-04-09T20:09:26.709Z,33.63
2023-04-09T20:12:04.303Z,33.63
2023-04-09T20:14:39.514Z,30.83
2023-04-09T20:17:12.344Z,30.70
2023-04-09T20:19:45.120Z,32.83
2023-04-09T20:22:18.087Z,32.33
2023-04-09T20:24:54.730Z,30.27
2023-04-09T20:27:28.274Z,30.93
2023-04-09T20:30:03.362Z,30.13
2023-04-09T20:32:37.083Z,30.33
2023-04-09T20:35:11.136Z,30.23
2023-04-09T20:37:44.117Z,30.50
2023-04-09T20:40:17.263Z,27.90
2023-04-09T20:42:53.172Z,30.27
2023-04-09T20:45:27.301Z,29.93
2023-04-09T20:48:00.128Z,30.40
2023-04-09T20:50:32.833Z,30.70
2023-04-09T20:53:05.633Z,30.60
2023-04-09T20:55:38.718Z,29.50
2023-04-09T20:58:11.577Z,30.07
2023-04-09T21:00:45.896Z,30.03
2023-04-09T21:03:18.812Z,29.70
2023-04-09T21:05:54.833Z,29.03
2023-04-09T21:08:30.823Z,29.27
2023-04-09T21:11:03.727Z,29.20
2023-04-09T21:13:50.974Z,31.50
2023-04-09T21:16:29.888Z,30.43
2023-04-09T21:19:07.129Z,31.67
2023-04-09T21:21:40.164Z,30.40
2023-04-09T21:24:12.835Z,30.63
2023-04-09T21:26:51.658Z,31.90
2023-04-09T21:29:25.392Z,31.87
2023-04-09T21:32:00.485Z,30.90
2023-04-09T21:34:33.355Z,30.40
2023-04-09T21:37:06.227Z,29.07
2023-04-09T21:39:41.083Z,30.03
2023-04-09T21:42:13.854Z,31.13
2023-04-09T21:44:47.172Z,31.40
2023-04-09T21:47:22.859Z,31.23
2023-04-09T21:49:55.899Z,30.93
2023-04-09T21:52:28.837Z,29.83
2023-04-09T21:55:01.702Z,30.23
2023-04-09T21:57:36.393Z,27.17
2023-04-09T22:00:11.160Z,31.00
2023-04-09T22:02:47.644Z,29.50
2023-04-09T22:05:20.438Z,30.77
2023-04-09T22:07:53.413Z,29.83
2023-04-09T22:10:27.511Z,29.17
2023-04-09T22:13:00.254Z,30.73
2023-04-09T22:15:33.369Z,30.33
2023-04-09T22:18:07.639Z,28.47
2023-04-09T22:20:40.612Z,29.10
2023-04-09T22:23:13.379Z,29.73
2023-04-09T22:25:46.424Z,30.20
2023-04-09T22:28:19.277Z,32.63
2023-04-09T22:30:53.195Z,32.57
2023-04-09T22:33:27.620Z,33.27
2023-04-09T22:36:00.466Z,34.50
2023-04-09T22:38:33.410Z,36.83
2023-04-09T22:41:06.476Z,38.33
2023-04-09T22:43:39.326Z,39.03
2023-04-09T22:46:14.406Z,41.00
2023-04-09T22:48:48.571Z,40.53
2023-04-09T22:51:24.657Z,40.83
2023-04-09T22:53:57.410Z,39.80
2023-04-09T22:56:31.482Z,42.47
2023-04-09T22:59:04.405Z,41.23
2023-04-09T23:01:37.300Z,44.90
2023-04-09T23:04:11.885Z,44.00
2023-04-09T23:06:45.935Z,45.13
2023-04-09T23:09:18.766Z,45.60
2023-04-09T23:11:51.651Z,45.83
2023-04-09T23:14:24.453Z,46.97
2023-04-09T23:16:57.855Z,46.63
2023-04-09T23:19:31.869Z,46.57
2023-04-09T23:22:08.124Z,46.57
2023-04-09T23:24:40.960Z,48.63
2023-04-09T23:27:15.025Z,50.50
2023-04-09T23:29:47.778Z,52.33
2023-04-09T23:32:20.724Z,51.87
2023-04-09T23:34:56.925Z,50.33
2023-04-09T23:37:31.280Z,52.37
2023-04-09T23:40:04.284Z,52.00
2023-04-09T23:42:37.013Z,48.73
2023-04-09T23:45:10.214Z,48.63
2023-04-09T23:47:42.849Z,46.30
2023-04-09T23:50:17.713Z,44.60
2023-04-09T23:52:50.660Z,46.27
2023-04-09T23:55:23.950Z,43.40
2023-04-09T23:57:56.791Z,45.23
